Time;durP1;ratioP1;P1;durP2;ratioP2;P2;SDS_P1;SDS_P2;PMS_P1;PMS_P2;Temp;Humidity;BMP_temperature;BMP_pressure;BME280_temperature;BME280_humidity;BME280_pressure;Samples;Min_cycle;Max_cycle;Signal;HPM_P1;HPM_P2
2023/11/20 00:02:22;;;;;;;1999.90;999.90;;;;;;;16.42;87.38;100636.34;10414994;28;20396;-67
2023/11/20 00:07:24;;;;;;;1999.90;999.90;;;;;;;17.21;82.67;100627.81;10414997;28;20132;-67
2023/11/20 00:12:27;;;;;;;1999.90;999.90;;;;;;;16.60;85.99;100633.13;10414990;28;20146;-67
2023/11/20 00:17:29;;;;;;;1999.90;999.90;;;;;;;16.82;84.90;100635.59;10416537;28;20137;-67
2023/11/20 00:22:32;;;;;;;1999.90;999.90;;;;;;;17.17;84.40;100642.31;10423507;28;20052;-67
2023/11/20 00:27:34;;;;;;;1999.90;999.90;;;;;;;17.25;82.59;100639.00;10405339;28;20503;-67
2023/11/20 00:32:37;;;;;;;1999.90;999.90;;;;;;;16.96;83.54;100630.94;10422683;28;20504;-67
2023/11/20 00:37:39;;;;;;;1999.90;999.90;;;;;;;16.76;86.87;100637.94;10422699;28;20048;-67
2023/11/20 00:42:41;;;;;;;1999.90;999.90;;;;;;;17.00;83.33;100642.94;10422250;28;20404;-67
2023/11/20 00:47:44;;;;;;;1999.90;999.90;;;;;;;16.31;89.83;100641.72;10422375;28;20058;-67
2023/11/20 00:52:46;;;;;;;1999.90;999.90;;;;;;;16.28;88.96;100656.03;10421979;28;20046;-67
2023/11/20 00:57:49;;;;;;;1999.90;999.90;;;;;;;17.02;83.57;100672.75;10422036;28;20049;-67
2023/11/20 01:02:51;;;;;;;1999.90;999.90;;;;;;;16.86;84.79;100660.00;10420560;28;20125;-67
2023/11/20 01:07:54;;;;;;;1999.90;999.90;;;;;;;17.07;84.04;100660.78;10421383;28;20056;-67
2023/11/20 01:12:56;;;;;;;1999.90;999.90;;;;;;;16.84;84.06;100668.06;10403748;28;20041;-67
2023/11/20 01:17:59;;;;;;;1999.90;999.90;;;;;;;16.77;85.57;100655.47;10419846;28;20404;-67
2023/11/20 01:23:01;;;;;;;1999.90;999.90;;;;;;;16.91;84.99;100660.44;10420981;28;20046;-67
2023/11/20 01:28:04;;;;;;;1999.90;999.90;;;;;;;16.83;83.16;100663.72;10420381;28;20045;-67
2023/11/20 01:33:07;;;;;;;1999.90;999.90;;;;;;;16.00;90.50;100669.84;10420581;28;20128;-66
2023/11/20 01:38:09;;;;;;;1999.90;999.90;;;;;;;16.96;85.52;100673.25;10420816;28;20091;-67
2023/11/20 01:43:12;;;;;;;1999.90;999.90;;;;;;;16.56;86.62;100672.22;10419987;28;20046;-67
2023/11/20 01:48:15;;;;;;;1999.90;999.90;;;;;;;16.84;85.95;100675.13;10419760;28;20124;-67
2023/11/20 01:53:18;;;;;;;1999.90;999.90;;;;;;;15.97;87.70;100674.44;10402216;28;20497;-67
2023/11/20 01:58:21;;;;;;;1999.90;999.90;;;;;;;16.88;82.94;100673.94;10402110;28;20136;-67
2023/11/20 02:03:24;;;;;;;1999.90;999.90;;;;;;;17.24;80.77;100675.19;10401928;28;20045;-67
2023/11/20 02:08:30;;;;;;;1999.90;999.90;;;;;;;17.23;82.18;100680.59;10401603;28;20050;-67
2023/11/20 02:13:33;;;;;;;1999.90;999.90;;;;;;;16.75;85.64;100689.16;10418784;28;20049;-67
2023/11/20 02:18:35;;;;;;;1999.90;999.90;;;;;;;16.44;86.26;100689.94;10418673;28;20053;-67
2023/11/20 02:23:37;;;;;;;1999.90;999.90;;;;;;;16.75;83.26;100679.41;10418673;28;20045;-67
2023/11/20 02:28:40;;;;;;;1999.90;999.90;;;;;;;17.28;79.90;100678.38;10418272;28;20132;-67
2023/11/20 02:33:42;;;;;;;1999.90;999.90;;;;;;;16.93;79.66;100670.88;10400626;28;20052;-67
2023/11/20 02:38:45;;;;;;;1999.90;999.90;;;;;;;16.70;81.69;100668.38;10418494;28;20045;-67
2023/11/20 02:43:47;;;;;;;1999.90;999.90;;;;;;;16.49;83.36;100668.38;10416943;28;20047;-67
2023/11/20 02:48:49;;;;;;;1999.90;999.90;;;;;;;17.62;77.01;100659.53;10417636;28;20231;-67
2023/11/20 02:53:52;;;;;;;1999.90;999.90;;;;;;;16.14;83.38;100659.81;10417242;28;20112;-67
2023/11/20 02:58:55;;;;;;;1999.90;999.90;;;;;;;16.72;81.80;100656.69;10399555;28;20451;-67
2023/11/20 03:03:57;;;;;;;1999.90;999.90;;;;;;;16.33;84.12;100663.56;10416885;28;20540;-67
2023/11/20 03:09:00;;;;;;;1999.90;999.90;;;;;;;16.68;81.63;100673.81;10416599;28;20049;-67
2023/11/20 03:14:02;;;;;;;1999.90;999.90;;;;;;;16.88;80.17;100668.66;10416629;28;20056;-66
2023/11/20 03:19:08;;;;;;;1999.90;999.90;;;;;;;16.48;80.78;100685.22;10415186;28;20057;-66
2023/11/20 03:24:10;;;;;;;1999.90;999.90;;;;;;;16.70;81.84;100684.25;10399319;28;20053;-66
2023/11/20 03:29:13;;;;;;;1999.90;999.90;;;;;;;16.44;82.75;100674.09;10416006;28;20088;-66
2023/11/20 03:34:15;;;;;;;1999.90;999.90;;;;;;;16.39;83.13;100675.41;10415593;28;20559;-67
2023/11/20 03:39:17;;;;;;;1999.90;999.90;;;;;;;16.13;84.37;100679.25;10415740;28;20057;-66
2023/11/20 03:44:20;;;;;;;1999.90;999.90;;;;;;;15.69;85.94;100689.00;10415615;28;20058;-66
2023/11/20 03:49:22;;;;;;;1999.90;999.90;;;;;;;16.14;82.22;100699.44;10415340;28;20053;-67
2023/11/20 03:54:25;;;;;;;1999.90;999.90;;;;;;;16.86;79.07;100702.28;10415113;28;20057;-66
2023/11/20 03:59:27;;;;;;;1999.90;999.90;;;;;;;16.26;80.32;100694.13;10415149;28;20492;-66
2023/11/20 04:04:29;;;;;;;1999.90;999.90;;;;;;;16.25;80.91;100693.25;10397641;28;20055;-67
2023/11/20 04:09:32;;;;;;;1999.90;999.90;;;;;;;15.89;82.71;100687.41;10414793;28;20092;-66
2023/11/20 04:14:34;;;;;;;1999.90;999.90;;;;;;;16.32;79.96;100685.66;10415300;28;20108;-66
2023/11/20 04:19:37;;;;;;;1999.90;999.90;;;;;;;15.83;80.08;100687.91;10397697;28;20057;-66
2023/11/20 04:24:39;;;;;;;1999.90;999.90;;;;;;;16.02;79.78;100681.97;10414800;28;20050;-66
2023/11/20 04:29:42;;;;;;;1999.90;999.90;;;;;;;16.60;78.86;100678.06;10414569;28;20089;-67
2023/11/20 04:34:44;;;;;;;1999.90;999.90;;;;;;;16.05;80.70;100676.41;10397241;28;20049;-66
2023/11/20 04:39:46;;;;;;;1999.90;999.90;;;;;;;16.27;78.85;100680.78;10397041;28;20063;-66
2023/11/20 04:44:49;;;;;;;1999.90;999.90;;;;;;;15.83;80.80;100698.47;10414287;28;20128;-67
2023/11/20 04:49:51;;;;;;;1999.90;999.90;;;;;;;16.22;79.23;100692.69;10397409;28;20055;-66
2023/11/20 04:54:57;;;;;;;1999.90;999.90;;;;;;;16.23;77.72;100694.38;10413944;28;20133;-67
2023/11/20 05:00:00;;;;;;;1999.90;999.90;;;;;;;16.81;76.87;100688.59;10397263;28;20122;-66
2023/11/20 05:05:05;;;;;;;1999.90;999.90;;;;;;;16.15;80.05;100698.50;10416767;28;20059;-66
2023/11/20 05:10:08;;;;;;;1999.90;999.90;;;;;;;16.48;78.59;100695.81;10421515;28;20049;-66
2023/11/20 05:15:11;;;;;;;1999.90;999.90;;;;;;;15.52;82.01;100693.00;10421096;28;20496;-66
2023/11/20 05:20:13;;;;;;;1999.90;999.90;;;;;;;15.46;80.13;100688.19;10420996;28;20045;-66
2023/11/20 05:25:16;;;;;;;1999.90;999.90;;;;;;;15.91;80.27;100679.38;10420916;28;20056;-66
2023/11/20 05:30:18;;;;;;;1999.90;999.90;;;;;;;15.90;77.83;100699.66;10420534;28;20056;-66
2023/11/20 05:35:20;;;;;;;1999.90;999.90;;;;;;;15.84;79.88;100694.88;10420575;28;20049;-66
2023/11/20 05:40:24;;;;;;;1999.90;999.90;;;;;;;15.83;77.27;100698.47;10420100;28;20472;-66
2023/11/20 05:45:27;;;;;;;1999.90;999.90;;;;;;;15.91;79.11;100695.22;10419988;28;20076;-67
2023/11/20 05:50:29;;;;;;;1999.90;999.90;;;;;;;16.12;78.24;100696.09;10420371;28;20045;-66
2023/11/20 05:55:32;;;;;;;1999.90;999.90;;;;;;;16.11;77.53;100693.56;10401904;28;20067;-67
2023/11/20 06:00:36;;;;;;;1999.90;999.90;;;;;;;16.44;76.41;100699.66;10419642;28;20052;-67
2023/11/20 06:05:38;;;;;;;1999.90;999.90;;;;;;;16.41;77.11;100710.47;10401850;28;20050;-67
2023/11/20 06:10:40;;;;;;;1999.90;999.90;;;;;;;16.32;77.33;100704.16;10401572;28;20053;-67
2023/11/20 06:15:43;;;;;;;1999.90;999.90;;;;;;;15.92;78.28;100704.78;10417845;28;20411;-66
2023/11/20 06:20:45;;;;;;;1999.90;999.90;;;;;;;16.15;78.43;100706.41;10418688;28;20069;-66
2023/11/20 06:25:47;;;;;;;1999.90;999.90;;;;;;;16.30;77.36;100701.63;10400945;28;20476;-66
2023/11/20 06:30:53;;;;;;;1999.90;999.90;;;;;;;15.97;78.39;100703.47;10418183;28;20045;-66
2023/11/20 06:35:55;;;;;;;1999.90;999.90;;;;;;;16.04;76.30;100713.50;10418207;28;20045;-67
2023/11/20 06:40:58;;;;;;;1999.90;999.90;;;;;;;15.81;80.05;100726.78;10417696;28;20049;-67
2023/11/20 06:46:01;;;;;;;1999.90;999.90;;;;;;;16.02;76.44;100726.00;10417875;28;20132;-66
2023/11/20 06:51:08;;;;;;;1999.90;999.90;;;;;;;15.93;76.46;100740.81;10417243;28;20065;-66
2023/11/20 06:56:16;;;;;;;1999.90;999.90;;;;;;;16.81;76.12;100739.69;10417322;28;20059;-66
2023/11/20 07:01:19;;;;;;;1999.90;999.90;;;;;;;15.17;80.08;100738.81;10399976;28;20444;-66
2023/11/20 07:06:23;;;;;;;1999.90;999.90;;;;;;;16.38;76.14;100742.44;10416877;28;20056;-66
2023/11/20 07:11:25;;;;;;;1999.90;999.90;;;;;;;16.01;77.04;100756.84;10416775;28;20045;-66
2023/11/20 07:16:28;;;;;;;1999.90;999.90;;;;;;;16.83;73.38;100753.63;10416471;28;20053;-66
2023/11/20 07:21:31;;;;;;;1999.90;999.90;;;;;;;16.08;76.09;100758.03;10416283;28;20111;-66
2023/11/20 07:26:33;;;;;;;1999.90;999.90;;;;;;;15.79;75.85;100752.47;10415811;28;20490;-66
2023/11/20 07:31:37;;;;;;;1999.90;999.90;;;;;;;15.60;75.09;100755.69;10415827;28;20075;-66
2023/11/20 07:36:40;;;;;;;1999.90;999.90;;;;;;;15.18;78.72;100763.38;10415932;28;20065;-66
2023/11/20 07:41:43;;;;;;;1999.90;999.90;;;;;;;16.37;73.37;100764.53;10415547;28;20469;-66
2023/11/20 07:46:45;;;;;;;1999.90;999.90;;;;;;;15.27;76.14;100767.94;10415717;28;20049;-66
2023/11/20 07:51:48;;;;;;;1999.90;999.90;;;;;;;15.79;72.89;100771.78;10397758;28;20060;-66
2023/11/20 07:56:50;;;;;;;1999.90;999.90;;;;;;;16.25;73.45;100769.03;10415475;28;20128;-66
2023/11/20 08:01:52;;;;;;;1999.90;999.90;;;;;;;16.25;72.15;100780.44;10415326;28;20049;-66
2023/11/20 08:06:54;;;;;;;1999.90;999.90;;;;;;;15.68;76.32;100786.75;10413899;28;20493;-66
2023/11/20 08:11:57;;;;;;;1999.90;999.90;;;;;;;15.95;73.18;100773.19;10415049;28;20045;-66
2023/11/20 08:16:59;;;;;;;1999.90;999.90;;;;;;;15.77;74.05;100776.34;10414747;28;20484;-66
2023/11/20 08:22:04;;;;;;;1999.90;999.90;;;;;;;16.33;73.01;100780.66;10414850;28;20076;-66
2023/11/20 08:27:08;;;;;;;1999.90;999.90;;;;;;;15.89;73.90;100782.44;10414535;28;20052;-66
2023/11/20 08:32:11;;;;;;;1999.90;999.90;;;;;;;16.29;74.00;100784.50;10414453;28;20103;-66
2023/11/20 08:37:13;;;;;;;1999.90;999.90;;;;;;;16.28;72.48;100774.06;10397350;28;20057;-66
2023/11/20 08:42:16;;;;;;;1999.90;999.90;;;;;;;15.76;74.90;100785.22;10422188;28;20132;-66
2023/11/20 08:47:18;;;;;;;1999.90;999.90;;;;;;;16.23;73.30;100782.38;10422358;28;20127;-66
2023/11/20 08:52:21;;;;;;;1999.90;999.90;;;;;;;16.90;71.51;100778.59;10421798;28;20049;-66
2023/11/20 08:57:23;;;;;;;1999.90;999.90;;;;;;;16.49;71.80;100774.94;10420698;28;20064;-67
2023/11/20 09:02:26;;;;;;;1999.90;999.90;;;;;;;19.75;64.48;100770.69;10421745;28;20045;-67
2023/11/20 09:07:28;;;;;;;1999.90;999.90;;;;;;;18.15;64.70;100770.44;10399552;22;20038;-73
2023/11/20 09:12:31;;;;;;;1999.90;999.90;;;;;;;17.99;67.03;100778.09;10339931;28;20057;-73
2023/11/20 09:17:34;;;;;;;1999.90;999.90;;;;;;;16.76;66.32;100772.75;10339411;28;20404;-73
2023/11/20 09:22:37;;;;;;;1999.90;999.90;;;;;;;18.94;65.85;100761.47;10336856;28;20047;-73
2023/11/20 09:27:41;;;;;;;1999.90;999.90;;;;;;;17.48;66.83;100757.84;10339013;28;20047;-73
2023/11/20 09:32:44;;;;;;;1999.90;999.90;;;;;;;19.93;62.12;100757.44;10339514;28;20050;-73
2023/11/20 09:37:47;;;;;;;1999.90;999.90;;;;;;;21.01;56.93;100754.69;10339094;28;20058;-73
2023/11/20 09:42:49;;;;;;;1999.90;999.90;;;;;;;19.44;61.62;100748.88;10337531;28;20054;-73
2023/11/20 09:47:54;;;;;;;1999.90;999.90;;;;;;;19.14;62.13;100753.47;10321490;28;20104;-73
2023/11/20 09:52:57;;;;;;;1999.90;999.90;;;;;;;18.92;62.49;100755.47;10338542;28;20405;-73
2023/11/20 09:57:59;;;;;;;1999.90;999.90;;;;;;;21.02;57.58;100755.56;10338259;28;20486;-73
2023/11/20 10:03:02;;;;;;;1999.90;999.90;;;;;;;19.40;60.65;100760.78;10337070;28;20057;-73
2023/11/20 10:08:05;;;;;;;1999.90;999.90;;;;;;;18.52;62.64;100764.44;10336588;28;20568;-73
2023/11/20 10:13:11;;;;;;;1999.90;999.90;;;;;;;19.21;61.20;100756.38;10336243;28;20077;-73
2023/11/20 10:18:15;;;;;;;1999.90;999.90;;;;;;;17.80;65.98;100758.53;10336245;28;20052;-73
2023/11/20 10:23:19;;;;;;;1999.90;999.90;;;;;;;17.55;66.91;100751.91;10336120;28;20050;-73
2023/11/20 10:28:22;;;;;;;1999.90;999.90;;;;;;;19.31;62.87;100751.88;10336091;28;20054;-73
2023/11/20 10:33:25;;;;;;;1999.90;999.90;;;;;;;18.23;63.15;100755.69;10335945;28;20167;-72
2023/11/20 10:38:28;;;;;;;1999.90;999.90;;;;;;;18.01;64.46;100747.84;10336882;28;20081;-73
2023/11/20 10:43:31;;;;;;;1999.90;999.90;;;;;;;18.31;64.92;100743.41;10336383;28;20512;-72
2023/11/20 10:48:34;;;;;;;1999.90;999.90;;;;;;;18.07;65.67;100748.25;10336312;28;20050;-72
2023/11/20 10:53:39;;;;;;;1999.90;999.90;;;;;;;18.53;64.38;100738.78;10334679;28;20468;-73
2023/11/20 10:58:44;;;;;;;1999.90;999.90;;;;;;;19.43;61.82;100723.31;10334741;28;20540;-73
2023/11/20 11:03:46;;;;;;;1999.90;999.90;;;;;;;19.40;60.39;100720.94;10333984;28;20137;-73
2023/11/20 11:08:50;;;;;;;1999.90;999.90;;;;;;;19.17;60.07;100715.22;10334292;28;20085;-72
2023/11/20 11:13:52;;;;;;;1999.90;999.90;;;;;;;18.19;62.50;100713.56;10334044;28;20505;-72
2023/11/20 11:19:09;;;;;;;1999.90;999.90;;;;;;;19.68;58.50;100719.13;10334963;28;20489;-72
2023/11/20 11:24:11;;;;;;;1999.90;999.90;;;;;;;19.11;62.68;100719.25;10333824;28;20049;-72
2023/11/20 11:29:17;;;;;;;1999.90;999.90;;;;;;;18.87;62.05;100710.00;10333934;28;20489;-72
2023/11/20 11:34:51;;;;;;;1999.90;999.90;;;;;;;17.62;63.20;100723.09;10333348;28;20410;-72
2023/11/20 11:40:09;;;;;;;1999.90;999.90;;;;;;;18.50;62.33;100721.34;10330563;28;20133;-72
2023/11/20 11:45:14;;;;;;;1999.90;999.90;;;;;;;18.57;63.22;100717.13;10317452;28;20050;-72
2023/11/20 11:50:17;;;;;;;1999.90;999.90;;;;;;;17.64;64.39;100716.66;10333643;28;20105;-72
2023/11/20 11:55:21;;;;;;;1999.90;999.90;;;;;;;18.22;64.24;100714.25;10333121;28;20073;-72
2023/11/20 12:00:26;;;;;;;1999.90;999.90;;;;;;;17.67;63.13;100709.41;10333816;28;20046;-72
2023/11/20 12:05:29;;;;;;;1999.90;999.90;;;;;;;17.50;62.32;100703.81;10333759;28;20053;-72
2023/11/20 12:10:50;;;;;;;1999.90;999.90;;;;;;;17.48;61.40;100699.63;10333631;28;20413;-72
2023/11/20 12:16:03;;;;;;;1999.90;999.90;;;;;;;16.81;62.88;100696.53;10338473;28;20050;-72
2023/11/20 12:21:07;;;;;;;1999.90;999.90;;;;;;;18.22;60.60;100677.16;10341840;28;20505;-72
2023/11/20 12:26:12;;;;;;;1999.90;999.90;;;;;;;18.63;59.27;100675.97;10340979;28;20060;-72
2023/11/20 12:31:14;;;;;;;1999.90;999.90;;;;;;;18.53;58.01;100683.94;10340367;28;20522;-72
2023/11/20 12:36:18;;;;;;;1999.90;999.90;;;;;;;18.10;58.43;100684.41;10340391;28;20050;-72
2023/11/20 12:41:23;;;;;;;1999.90;999.90;;;;;;;17.43;59.82;100681.50;10340184;28;20130;-72
2023/11/20 12:46:27;;;;;;;1999.90;999.90;;;;;;;16.80;58.35;100673.72;10341301;28;20133;-72
2023/11/20 12:51:30;;;;;;;1999.90;999.90;;;;;;;17.58;58.76;100676.66;10324513;28;20046;-72
2023/11/20 12:56:34;;;;;;;1999.90;999.90;;;;;;;17.34;58.57;100667.28;10339621;28;20138;-72
2023/11/20 13:01:36;;;;;;;1999.90;999.90;;;;;;;16.97;59.77;100659.91;10339193;28;20524;-72
2023/11/20 13:06:39;;;;;;;1999.90;999.90;;;;;;;17.67;57.60;100656.47;10339868;28;20417;-72
2023/11/20 13:11:42;;;;;;;1999.90;999.90;;;;;;;17.86;56.87;100661.78;10339457;28;20093;-72
2023/11/20 13:16:44;;;;;;;1999.90;999.90;;;;;;;17.52;57.29;100654.22;10339942;28;20046;-72
2023/11/20 13:21:49;;;;;;;1999.90;999.90;;;;;;;17.42;56.33;100648.09;10338401;28;20057;-72
2023/11/20 13:26:51;;;;;;;1999.90;999.90;;;;;;;17.59;58.87;100643.94;10337775;28;20058;-72
2023/11/20 13:31:54;;;;;;;1999.90;999.90;;;;;;;17.39;59.04;100643.06;10337832;28;20404;-72
2023/11/20 13:36:56;;;;;;;1999.90;999.90;;;;;;;17.71;56.93;100649.94;10339278;28;20054;-72
2023/11/20 13:41:59;;;;;;;1999.90;999.90;;;;;;;18.46;55.57;100645.75;10338988;28;20054;-72
2023/11/20 13:47:03;;;;;;;1999.90;999.90;;;;;;;17.78;59.34;100645.75;10337541;28;20512;-72
2023/11/20 13:52:07;;;;;;;1999.90;999.90;;;;;;;17.43;58.84;100641.81;10338870;28;20059;-72
2023/11/20 13:57:10;;;;;;;1999.90;999.90;;;;;;;17.85;58.56;100644.22;10338214;28;20061;-72
2023/11/20 14:02:13;;;;;;;1999.90;999.90;;;;;;;17.03;58.84;100646.16;10337498;28;20050;-72
2023/11/20 14:07:18;;;;;;;1999.90;999.90;;;;;;;17.13;59.50;100651.50;10337772;28;20061;-72
2023/11/20 14:12:20;;;;;;;1999.90;999.90;;;;;;;17.11;59.05;100644.66;10337818;28;20052;-72
2023/11/20 14:17:23;;;;;;;1999.90;999.90;;;;;;;16.71;59.50;100641.81;10337458;28;20057;-72
2023/11/20 14:22:28;;;;;;;1999.90;999.90;;;;;;;17.63;59.06;100637.38;10336125;28;20159;-72
2023/11/20 14:27:32;;;;;;;1999.90;999.90;;;;;;;17.58;59.02;100639.59;10336389;28;20062;-72
2023/11/20 14:32:34;;;;;;;1999.90;999.90;;;;;;;16.72;62.64;100643.47;10336217;28;20046;-72
2023/11/20 14:37:37;;;;;;;1999.90;999.90;;;;;;;17.03;61.69;100648.81;10336262;28;20482;-72
2023/11/20 14:42:41;;;;;;;1999.90;999.90;;;;;;;16.99;62.50;100655.31;10336424;28;20421;-72
2023/11/20 14:47:47;;;;;;;1999.90;999.90;;;;;;;17.37;61.62;100648.50;10335782;28;20057;-72
2023/11/20 14:52:50;;;;;;;1999.90;999.90;;;;;;;16.71;65.25;100646.28;10334975;28;20042;-72
2023/11/20 14:57:53;;;;;;;1999.90;999.90;;;;;;;16.03;68.03;100649.31;10334724;28;20058;-72
2023/11/20 15:02:57;;;;;;;1999.90;999.90;;;;;;;16.75;67.56;100641.56;10334938;28;20049;-72
2023/11/20 15:08:00;;;;;;;1999.90;999.90;;;;;;;15.75;70.95;100632.22;10334317;28;20086;-72
2023/11/20 15:13:02;;;;;;;1999.90;999.90;;;;;;;17.30;66.13;100630.63;10334243;28;20054;-72
2023/11/20 15:18:05;;;;;;;1999.90;999.90;;;;;;;17.41;65.19;100633.16;10335432;28;20060;-72
2023/11/20 15:23:09;;;;;;;1999.90;999.90;;;;;;;17.63;63.50;100637.38;10335224;28;20046;-72
2023/11/20 15:28:11;;;;;;;1999.90;999.90;;;;;;;17.49;63.65;100643.91;10333924;28;20055;-72
2023/11/20 15:33:14;;;;;;;1999.90;999.90;;;;;;;16.41;67.33;100653.19;10333441;28;20046;-72
2023/11/20 15:38:16;;;;;;;1999.90;999.90;;;;;;;16.68;66.32;100660.59;10334369;28;20064;-72
2023/11/20 15:43:18;;;;;;;1999.90;999.90;;;;;;;16.12;67.22;100667.03;10333186;28;20046;-72
2023/11/20 15:48:23;;;;;;;1999.90;999.90;;;;;;;16.21;66.52;100661.97;10317045;28;20058;-72
2023/11/20 15:53:26;;;;;;;1999.90;999.90;;;;;;;15.88;67.94;100653.22;10333824;28;20405;-72
2023/11/20 15:58:31;;;;;;;1999.90;999.90;;;;;;;15.84;67.19;100657.91;10334116;28;20101;-72
2023/11/20 16:03:35;;;;;;;1999.90;999.90;;;;;;;15.36;67.57;100659.06;10333900;28;20050;-72
2023/11/20 16:08:37;;;;;;;1999.90;999.90;;;;;;;15.79;66.38;100668.84;10332307;28;20138;-72
2023/11/20 16:13:39;;;;;;;1999.90;999.90;;;;;;;15.65;67.45;100670.88;10332325;28;20073;-72
2023/11/20 16:18:42;;;;;;;1999.90;999.90;;;;;;;15.83;64.98;100658.88;10332272;28;20141;-72
2023/11/20 16:23:45;;;;;;;1999.90;999.90;;;;;;;15.04;67.38;100654.53;10333639;28;20046;-72
2023/11/20 16:28:48;;;;;;;1999.90;999.90;;;;;;;15.20;66.59;100662.09;10332270;28;20046;-72
2023/11/20 16:33:51;;;;;;;1999.90;999.90;;;;;;;15.17;66.85;100653.59;10332073;28;20077;-72
2023/11/20 16:38:54;;;;;;;1999.90;999.90;;;;;;;15.14;67.60;100656.47;10333706;28;20552;-72
2023/11/20 16:43:56;;;;;;;1999.90;999.90;;;;;;;15.02;69.67;100668.81;10331955;28;20056;-72
2023/11/20 16:48:58;;;;;;;1999.90;999.90;;;;;;;14.49;70.98;100685.97;10333076;28;20469;-72
2023/11/20 16:54:02;;;;;;;1999.90;999.90;;;;;;;14.90;67.82;100681.16;10331643;28;20379;-72
2023/11/20 16:59:04;;;;;;;1999.90;999.90;;;;;;;15.06;67.86;100688.69;10316653;28;20050;-72
2023/11/20 17:04:06;;;;;;;1999.90;999.90;;;;;;;15.28;67.57;100693.16;10339327;28;20065;-72
2023/11/20 17:09:14;;;;;;;1999.90;999.90;;;;;;;15.43;67.45;100696.34;10338821;28;20065;-72
2023/11/20 17:14:17;;;;;;;1999.90;999.90;;;;;;;15.87;66.97;100689.34;10340081;28;20104;-72
2023/11/20 17:19:21;;;;;;;1999.90;999.90;;;;;;;15.01;70.21;100691.72;10338596;28;20064;-72
2023/11/20 17:24:24;;;;;;;1999.90;999.90;;;;;;;15.15;68.91;100700.34;10322336;28;20437;-72
2023/11/20 17:29:26;;;;;;;1999.90;999.90;;;;;;;15.32;67.91;100701.66;10322099;28;20058;-72
2023/11/20 17:34:29;;;;;;;1999.90;999.90;;;;;;;15.76;65.84;100703.41;10338192;28;20050;-72
2023/11/20 17:39:31;;;;;;;1999.90;999.90;;;;;;;15.54;66.43;100703.41;10338925;28;20552;-72
2023/11/20 17:44:34;;;;;;;1999.90;999.90;;;;;;;15.27;65.82;100702.00;10338801;28;20450;-73
2023/11/20 17:49:36;;;;;;;1999.90;999.90;;;;;;;15.19;67.40;100696.50;10338764;28;20050;-72
2023/11/20 17:54:39;;;;;;;1999.90;999.90;;;;;;;14.94;67.80;100700.19;10338347;28;20042;-72
2023/11/20 17:59:41;;;;;;;1999.90;999.90;;;;;;;15.26;66.88;100705.59;10337208;28;20068;-72
2023/11/20 18:04:44;;;;;;;1999.90;999.90;;;;;;;15.48;65.66;100714.47;10337935;28;20478;-72
2023/11/20 18:09:46;;;;;;;1999.90;999.90;;;;;;;14.94;67.84;100716.84;10336524;28;20062;-72
2023/11/20 18:14:49;;;;;;;1999.90;999.90;;;;;;;15.00;66.94;100719.03;10336565;28;20050;-72
2023/11/20 18:19:51;;;;;;;1999.90;999.90;;;;;;;15.08;66.59;100721.06;10337493;28;20054;-72
2023/11/20 18:24:53;;;;;;;1999.90;999.90;;;;;;;15.01;64.85;100723.34;10337481;28;20070;-72
2023/11/20 18:29:56;;;;;;;1999.90;999.90;;;;;;;14.79;65.63;100739.97;10337116;28;20072;-72
2023/11/20 18:34:59;;;;;;;1999.90;999.90;;;;;;;14.50;65.76;100740.31;10335942;28;20137;-72
2023/11/20 18:40:03;;;;;;;1999.90;999.90;;;;;;;14.22;67.07;100738.91;10335545;28;20133;-72
2023/11/20 18:45:06;;;;;;;1999.90;999.90;;;;;;;14.34;65.14;100736.31;10336462;28;20050;-72
2023/11/20 18:50:09;;;;;;;1999.90;999.90;;;;;;;14.23;65.13;100737.94;10335082;28;20050;-72
2023/11/20 18:55:12;;;;;;;1999.90;999.90;;;;;;;14.33;65.51;100750.44;10334679;28;20496;-72
2023/11/20 19:00:19;;;;;;;1999.90;999.90;;;;;;;13.56;67.13;100751.56;10334614;28;20449;-72
2023/11/20 19:05:25;;;;;;;1999.90;999.90;;;;;;;13.86;67.21;100758.22;10334453;28;20493;-72
2023/11/20 19:10:27;;;;;;;1999.90;999.90;;;;;;;14.15;66.32;100764.00;10334175;28;20142;-72
2023/11/20 19:15:30;;;;;;;1999.90;999.90;;;;;;;14.15;67.37;100763.16;10335284;28;20062;-72
2023/11/20 19:20:32;;;;;;;1999.90;999.90;;;;;;;14.28;66.09;100761.31;10334963;28;20069;-72
2023/11/20 19:25:35;;;;;;;1999.90;999.90;;;;;;;14.35;66.56;100759.06;10334538;28;20050;-72
2023/11/20 19:30:38;;;;;;;1999.90;999.90;;;;;;;14.25;67.91;100770.28;10334889;28;20109;-72
2023/11/20 19:35:41;;;;;;;1999.90;999.90;;;;;;;14.10;67.09;100772.25;10333451;28;20057;-72
2023/11/20 19:40:45;;;;;;;1999.90;999.90;;;;;;;14.57;67.27;100767.03;10333120;28;20410;-72
2023/11/20 19:45:47;;;;;;;1999.90;999.90;;;;;;;14.71;66.94;100771.34;10334467;28;20099;-72
2023/11/20 19:50:50;;;;;;;1999.90;999.90;;;;;;;14.01;66.33;100778.16;10333037;28;20050;-72
2023/11/20 19:55:52;;;;;;;1999.90;999.90;;;;;;;13.39;70.20;100776.41;10333846;28;20100;-72
2023/11/20 20:00:56;;;;;;;1999.90;999.90;;;;;;;14.06;68.48;100776.03;10332777;28;20509;-72
2023/11/20 20:05:59;;;;;;;1999.90;999.90;;;;;;;14.25;69.43;100772.91;10333523;28;20050;-72
2023/11/20 20:11:02;;;;;;;1999.90;999.90;;;;;;;14.39;66.60;100777.19;10333906;28;20157;-72
2023/11/20 20:16:04;;;;;;;1999.90;999.90;;;;;;;14.34;67.92;100775.81;10332294;28;20436;-72
2023/11/20 20:21:08;;;;;;;1999.90;999.90;;;;;;;14.01;69.54;100785.25;10333408;28;20101;-72
2023/11/20 20:26:11;;;;;;;1999.90;999.90;;;;;;;13.82;68.27;100786.56;10333535;28;20049;-72
2023/11/20 20:31:13;;;;;;;1999.90;999.90;;;;;;;14.08;66.46;100795.19;10333243;28;20058;-72
2023/11/20 20:36:16;;;;;;;1999.90;999.90;;;;;;;13.90;68.60;100804.41;10337573;28;20409;-72
2023/11/20 20:41:18;;;;;;;1999.90;999.90;;;;;;;13.45;69.21;100804.06;10339919;28;20133;-72
2023/11/20 20:46:20;;;;;;;1999.90;999.90;;;;;;;14.21;69.63;100815.41;10339828;28;20398;-72
2023/11/20 20:51:23;;;;;;;1999.90;999.90;;;;;;;14.67;67.54;100819.94;10341376;28;20065;-72
2023/11/20 20:56:25;;;;;;;1999.90;999.90;;;;;;;14.73;67.86;100823.94;10339434;28;20046;-72
2023/11/20 21:01:28;;;;;;;1999.90;999.90;;;;;;;14.91;70.09;100826.97;10339490;28;20076;-72
2023/11/20 21:06:30;;;;;;;1999.90;999.90;;;;;;;14.61;73.33;100834.41;10340142;28;20079;-72
2023/11/20 21:11:33;;;;;;;1999.90;999.90;;;;;;;15.64;69.22;100831.03;10340449;28;20050;-77
2023/11/20 21:16:37;;;;;;;1999.90;999.90;;;;;;;15.61;69.87;100834.75;10339855;28;20058;-77
2023/11/20 21:21:40;;;;;;;1999.90;999.90;;;;;;;15.44;70.98;100829.94;10374586;22;20452;-64
2023/11/20 21:26:43;;;;;;;1999.90;999.90;;;;;;;15.04;69.01;100843.53;10421151;28;20133;-65
2023/11/20 21:31:45;;;;;;;1999.90;999.90;;;;;;;15.28;72.76;100834.72;10420716;28;20049;-64
2023/11/20 21:36:48;;;;;;;1999.90;999.90;;;;;;;15.00;70.90;100834.19;10420733;28;20045;-65
2023/11/20 21:41:50;;;;;;;1999.90;999.90;;;;;;;15.33;69.79;100836.06;10420409;28;20055;-64
2023/11/20 21:46:54;;;;;;;1999.90;999.90;;;;;;;15.42;68.88;100837.97;10402615;28;20045;-64
2023/11/20 21:51:56;;;;;;;1999.90;999.90;;;;;;;14.85;71.29;100852.81;10420106;28;20050;-65
2023/11/20 21:56:59;;;;;;;1999.90;999.90;;;;;;;15.12;70.43;100858.78;10419689;28;20049;-64